Cala Pula — IBID — position and weather

sailwx.info

Track history (hours):
 
Tides and Currents Weather Stations Pressure Air Temp Water Temp Dewpoint Dewpoint Depression Visibility Wind Speed Wind Dir Waves Ship Positions

Cala Pula

Last reported at 2017-Sep-21 04:55 UTC. Time now 2017-Sep-21 05:22 UTC.
Position N 44°16' E 008°27'.

Length 189 m; draft 8.2 m.

Type: Cargo ship. MMSI: 247585000.

Date/timePositionNaut miles runAvg speedWind from/ knotsBaromVisibWave heightAir tempDewpointWater temp
2017-Sep-21 04:55N 44°16' E 008°27'0 0.0
2017-Sep-21 04:28N 44°16' E 008°27'1 1.6
2017-Sep-21 04:00N 44°16' E 008°28'2 4.5
2017-Sep-21 03:30N 44°15' E 008°31'2 4.8
2017-Sep-21 03:00N 44°13' E 008°31'5 9.5
2017-Sep-21 02:30N 44°09' E 008°28'816.5
2017-Sep-21 02:00N 44°01' E 008°22'918.7
2017-Sep-21 01:30N 43°53' E 008°15'1018.8
2017-Sep-21 00:59N 43°47' E 008°05'1019.1
2017-Sep-21 00:29N 43°41' E 007°55'919.2
2017-Sep-21 00:00N 43°34' E 007°46'1019.3
2017-Sep-20 23:30N 43°28' E 007°36'1019.3
2017-Sep-20 23:00N 43°22' E 007°26'1019.3
2017-Sep-20 22:30N 43°15' E 007°16'1019.5
2017-Sep-20 22:00N 43°08' E 007°07'1019.4
2017-Sep-20 21:30N 43°02' E 006°57'1019.2
2017-Sep-20 21:00N 42°56' E 006°47'1019.2
2017-Sep-20 20:30N 42°49' E 006°37'1019.6
2017-Sep-20 20:00N 42°43' E 006°27'1020.0
2017-Sep-20 19:30N 42°36' E 006°17'3819.9
2017-Sep-20 17:37N 42°10' E 005°40'219.8
2017-Sep-20 17:30N 42°09' E 005°38'1019.9
2017-Sep-20 17:00N 42°02' E 005°28'1020.2
2017-Sep-20 16:30N 41°55' E 005°18'12120.9
2017-Sep-20 10:41N 40°34' E 003°17'421.0
2017-Sep-20 10:29N 40°32' E 003°13'1021.1
2017-Sep-20 10:00N 40°25' E 003°03'1121.5
2017-Sep-20 09:31N 40°18' E 002°53'1121.0
2017-Sep-20 09:00N 40°11' E 002°43'1121.3
2017-Sep-20 08:30N 40°04' E 002°32'1121.2
2017-Sep-20 08:00N 39°57' E 002°22'1121.2
2017-Sep-20 07:30N 39°50' E 002°11'1121.6
2017-Sep-20 07:00N 39°42' E 002°01'1121.6
2017-Sep-20 06:30N 39°35' E 001°51'1121.4
2017-Sep-20 06:00N 39°27' E 001°41'1121.7
2017-Sep-20 05:30N 39°20' E 001°31'1222.0
2017-Sep-20 04:57N 39°12' E 001°19'2922.1
2017-Sep-20 03:38N 38°50' E 000°54'421.9
2017-Sep-20 03:28N 38°47' E 000°51'8422.0
2017-Sep-19 23:39N 37°44' W 000°19'321.6
2017-Sep-19 23:30N 37°42' W 000°22'1121.5
2017-Sep-19 23:00N 37°34' W 000°31'1121.6
2017-Sep-19 22:29N 37°26' W 000°40'1221.4
2017-Sep-19 21:57N 37°17' W 000°51'1021.5
2017-Sep-19 21:29N 37°10' W 000°59'2121.6
2017-Sep-19 20:32N 36°57' W 001°19'221.7
2017-Sep-19 20:25N 36°56' W 001°21'1121.2
2017-Sep-19 19:53N 36°48' W 001°32'18322.2
2017-Sep-19 11:38N 35°60' W 005°11'323.3
2017-Sep-19 11:31N 35°59' W 005°15'1223.1
2017-Sep-19 11:00N 35°57' W 005°29'16421.3
2017-Sep-19 03:21N 36°28' W 008°48'721.7
2017-Sep-19 03:00N 36°30' W 008°57'1121.8
2017-Sep-19 02:30N 36°33' W 009°10'1321.5
2017-Sep-19 01:55N 36°40' W 009°23'922.1
2017-Sep-19 01:30N 36°46' W 009°31'1222.0
2017-Sep-19 00:58N 36°58' W 009°35'1821.9
2017-Sep-19 00:08N 37°16' W 009°33'422.0
2017-Sep-18 23:58N 37°20' W 009°32'1322.4
2017-Sep-18 23:24N 37°32' W 009°31'821.8
2017-Sep-18 23:00N 37°41' W 009°30'1122.2
2017-Sep-18 22:30N 37°52' W 009°28'1122.0
2017-Sep-18 22:00N 38°03' W 009°27'1122.2
2017-Sep-18 21:30N 38°14' W 009°26'1121.7
2017-Sep-18 21:00N 38°24' W 009°24'1121.5
2017-Sep-18 20:30N 38°35' W 009°23'815.5
2017-Sep-18 20:00N 38°41' W 009°17'611.7
2017-Sep-18 19:31N 38°42' W 009°09'3 4.9
2017-Sep-18 18:57N 38°44' W 009°06'0 0.0
2017-Sep-18 18:30N 38°44' W 009°06'0 0.0
2017-Sep-18 18:00N 38°44' W 009°06'0 0.0
2017-Sep-18 17:30N 38°44' W 009°06'0 0.0
2017-Sep-18 17:00N 38°44' W 009°06'0 0.0
2017-Sep-18 16:30N 38°44' W 009°06'0 0.0
2017-Sep-18 16:00N 38°44' W 009°06'0 0.0
2017-Sep-18 15:21N 38°44' W 009°06'0 0.0
2017-Sep-18 15:00N 38°44' W 009°06'0 0.0
2017-Sep-18 14:30N 38°44' W 009°06'0 0.0
2017-Sep-18 13:51N 38°44' W 009°06'0 0.0
2017-Sep-18 13:30N 38°44' W 009°06'0 0.0
2017-Sep-18 13:00N 38°44' W 009°06'0 0.0
2017-Sep-18 12:12N 38°44' W 009°06'0 0.0
2017-Sep-18 12:00N 38°44' W 009°06'0 0.0
2017-Sep-18 11:27N 38°44' W 009°06'0 0.0
2017-Sep-18 10:54N 38°44' W 009°06'0 0.0
2017-Sep-18 10:30N 38°44' W 009°06'0 0.0
2017-Sep-18 09:54N 38°44' W 009°06'0 0.0
2017-Sep-18 09:27N 38°44' W 009°06'0 0.0
2017-Sep-18 09:00N 38°44' W 009°06'0 0.8
2017-Sep-18 08:30N 38°43' W 009°07'3 6.5
2017-Sep-18 08:00N 38°41' W 009°10'510.2
2017-Sep-18 07:30N 38°41' W 009°17'612.4
2017-Sep-18 07:00N 38°37' W 009°23'815.2
2017-Sep-18 06:30N 38°36' W 009°33'1020.4
2017-Sep-18 06:00N 38°34' W 009°45'1121.5
2017-Sep-18 05:30N 38°33' W 009°59'1121.9
2017-Sep-18 05:00N 38°32' W 010°13'1121.7
2017-Sep-18 04:30N 38°30' W 010°27'1321.8
2017-Sep-18 03:54N 38°29' W 010°43'921.9
2017-Sep-18 03:30N 38°28' W 010°54'1321.8
2017-Sep-18 02:56N 38°27' W 011°10'59221.5
2017-Sep-16 23:23N 36°59' W 023°31'821.6
2017-Sep-16 23:01N 36°57' W 023°41'1121.7
2017-Sep-16 22:30N 36°55' W 023°54'1121.9
2017-Sep-16 22:00N 36°53' W 024°07'1121.4
2017-Sep-16 21:30N 36°51' W 024°21'1121.1
2017-Sep-16 21:00N 36°49' W 024°33'1121.4
2017-Sep-16 20:30N 36°47' W 024°47'1121.6
2017-Sep-16 20:00N 36°45' W 024°60'1121.6
2017-Sep-16 19:30N 36°42' W 025°13'1121.7
2017-Sep-16 19:00N 36°38' W 025°25'1121.4
2017-Sep-16 18:30N 36°34' W 025°38'1121.5
2017-Sep-16 18:00N 36°31' W 025°51'1121.3
2017-Sep-16 17:30N 36°28' W 026°03'1121.1
2017-Sep-16 17:00N 36°25' W 026°16'2921.2
2017-Sep-16 15:37N 36°17' W 026°51'321.5
2017-Sep-16 15:30N 36°16' W 026°54'  
Track history (hours):
 
Tides and Currents Weather Stations Pressure Air Temp Water Temp Dewpoint Dewpoint Depression Visibility Wind Speed Wind Dir Waves Ship Positions

Cala Pula

Last reported at 2017-Sep-21 04:55 UTC. Time now 2017-Sep-21 05:22 UTC.
Position N 44°16' E 008°27'.

Length 189 m; draft 8.2 m.

Type: Cargo ship. MMSI: 247585000.

Date/timePositionNaut miles runAvg speedWind from/ knotsBaromVisibWave heightAir tempDewpointWater temp
2017-Sep-21 04:55N 44°16' E 008°27'0 0.0
2017-Sep-21 04:28N 44°16' E 008°27'1 1.6
2017-Sep-21 04:00N 44°16' E 008°28'2 4.5
2017-Sep-21 03:30N 44°15' E 008°31'2 4.8
2017-Sep-21 03:00N 44°13' E 008°31'5 9.5
2017-Sep-21 02:30N 44°09' E 008°28'816.5
2017-Sep-21 02:00N 44°01' E 008°22'918.7
2017-Sep-21 01:30N 43°53' E 008°15'1018.8
2017-Sep-21 00:59N 43°47' E 008°05'1019.1
2017-Sep-21 00:29N 43°41' E 007°55'919.2
2017-Sep-21 00:00N 43°34' E 007°46'1019.3
2017-Sep-20 23:30N 43°28' E 007°36'1019.3
2017-Sep-20 23:00N 43°22' E 007°26'1019.3
2017-Sep-20 22:30N 43°15' E 007°16'1019.5
2017-Sep-20 22:00N 43°08' E 007°07'1019.4
2017-Sep-20 21:30N 43°02' E 006°57'1019.2
2017-Sep-20 21:00N 42°56' E 006°47'1019.2
2017-Sep-20 20:30N 42°49' E 006°37'1019.6
2017-Sep-20 20:00N 42°43' E 006°27'1020.0
2017-Sep-20 19:30N 42°36' E 006°17'3819.9
2017-Sep-20 17:37N 42°10' E 005°40'219.8
2017-Sep-20 17:30N 42°09' E 005°38'1019.9
2017-Sep-20 17:00N 42°02' E 005°28'1020.2
2017-Sep-20 16:30N 41°55' E 005°18'12120.9
2017-Sep-20 10:41N 40°34' E 003°17'421.0
2017-Sep-20 10:29N 40°32' E 003°13'1021.1
2017-Sep-20 10:00N 40°25' E 003°03'1121.5
2017-Sep-20 09:31N 40°18' E 002°53'1121.0
2017-Sep-20 09:00N 40°11' E 002°43'1121.3
2017-Sep-20 08:30N 40°04' E 002°32'1121.2
2017-Sep-20 08:00N 39°57' E 002°22'1121.2
2017-Sep-20 07:30N 39°50' E 002°11'1121.6
2017-Sep-20 07:00N 39°42' E 002°01'1121.6
2017-Sep-20 06:30N 39°35' E 001°51'1121.4
2017-Sep-20 06:00N 39°27' E 001°41'1121.7
2017-Sep-20 05:30N 39°20' E 001°31'1222.0
2017-Sep-20 04:57N 39°12' E 001°19'2922.1
2017-Sep-20 03:38N 38°50' E 000°54'421.9
2017-Sep-20 03:28N 38°47' E 000°51'8422.0
2017-Sep-19 23:39N 37°44' W 000°19'321.6
2017-Sep-19 23:30N 37°42' W 000°22'1121.5
2017-Sep-19 23:00N 37°34' W 000°31'1121.6
2017-Sep-19 22:29N 37°26' W 000°40'1221.4
2017-Sep-19 21:57N 37°17' W 000°51'1021.5
2017-Sep-19 21:29N 37°10' W 000°59'2121.6
2017-Sep-19 20:32N 36°57' W 001°19'221.7
2017-Sep-19 20:25N 36°56' W 001°21'1121.2
2017-Sep-19 19:53N 36°48' W 001°32'18322.2
2017-Sep-19 11:38N 35°60' W 005°11'323.3
2017-Sep-19 11:31N 35°59' W 005°15'1223.1
2017-Sep-19 11:00N 35°57' W 005°29'16421.3
2017-Sep-19 03:21N 36°28' W 008°48'721.7
2017-Sep-19 03:00N 36°30' W 008°57'1121.8
2017-Sep-19 02:30N 36°33' W 009°10'1321.5
2017-Sep-19 01:55N 36°40' W 009°23'922.1
2017-Sep-19 01:30N 36°46' W 009°31'1222.0
2017-Sep-19 00:58N 36°58' W 009°35'1821.9
2017-Sep-19 00:08N 37°16' W 009°33'422.0
2017-Sep-18 23:58N 37°20' W 009°32'1322.4
2017-Sep-18 23:24N 37°32' W 009°31'821.8
2017-Sep-18 23:00N 37°41' W 009°30'1122.2
2017-Sep-18 22:30N 37°52' W 009°28'1122.0
2017-Sep-18 22:00N 38°03' W 009°27'1122.2
2017-Sep-18 21:30N 38°14' W 009°26'1121.7
2017-Sep-18 21:00N 38°24' W 009°24'1121.5
2017-Sep-18 20:30N 38°35' W 009°23'815.5
2017-Sep-18 20:00N 38°41' W 009°17'611.7
2017-Sep-18 19:31N 38°42' W 009°09'3 4.9
2017-Sep-18 18:57N 38°44' W 009°06'0 0.0
2017-Sep-18 18:30N 38°44' W 009°06'0 0.0
2017-Sep-18 18:00N 38°44' W 009°06'0 0.0
2017-Sep-18 17:30N 38°44' W 009°06'0 0.0
2017-Sep-18 17:00N 38°44' W 009°06'0 0.0
2017-Sep-18 16:30N 38°44' W 009°06'0 0.0
2017-Sep-18 16:00N 38°44' W 009°06'0 0.0
2017-Sep-18 15:21N 38°44' W 009°06'0 0.0
2017-Sep-18 15:00N 38°44' W 009°06'0 0.0
2017-Sep-18 14:30N 38°44' W 009°06'0 0.0
2017-Sep-18 13:51N 38°44' W 009°06'0 0.0
2017-Sep-18 13:30N 38°44' W 009°06'0 0.0
2017-Sep-18 13:00N 38°44' W 009°06'0 0.0
2017-Sep-18 12:12N 38°44' W 009°06'0 0.0
2017-Sep-18 12:00N 38°44' W 009°06'0 0.0
2017-Sep-18 11:27N 38°44' W 009°06'0 0.0
2017-Sep-18 10:54N 38°44' W 009°06'0 0.0
2017-Sep-18 10:30N 38°44' W 009°06'0 0.0
2017-Sep-18 09:54N 38°44' W 009°06'0 0.0
2017-Sep-18 09:27N 38°44' W 009°06'0 0.0
2017-Sep-18 09:00N 38°44' W 009°06'0 0.8
2017-Sep-18 08:30N 38°43' W 009°07'3 6.5
2017-Sep-18 08:00N 38°41' W 009°10'510.2
2017-Sep-18 07:30N 38°41' W 009°17'612.4
2017-Sep-18 07:00N 38°37' W 009°23'815.2
2017-Sep-18 06:30N 38°36' W 009°33'1020.4
2017-Sep-18 06:00N 38°34' W 009°45'1121.5
2017-Sep-18 05:30N 38°33' W 009°59'1121.9
2017-Sep-18 05:00N 38°32' W 010°13'1121.7
2017-Sep-18 04:30N 38°30' W 010°27'1321.8
2017-Sep-18 03:54N 38°29' W 010°43'921.9
2017-Sep-18 03:30N 38°28' W 010°54'1321.8
2017-Sep-18 02:56N 38°27' W 011°10'59221.5
2017-Sep-16 23:23N 36°59' W 023°31'821.6
2017-Sep-16 23:01N 36°57' W 023°41'1121.7
2017-Sep-16 22:30N 36°55' W 023°54'1121.9
2017-Sep-16 22:00N 36°53' W 024°07'1121.4
2017-Sep-16 21:30N 36°51' W 024°21'1121.1
2017-Sep-16 21:00N 36°49' W 024°33'1121.4
2017-Sep-16 20:30N 36°47' W 024°47'1121.6
2017-Sep-16 20:00N 36°45' W 024°60'1121.6
2017-Sep-16 19:30N 36°42' W 025°13'1121.7
2017-Sep-16 19:00N 36°38' W 025°25'1121.4
2017-Sep-16 18:30N 36°34' W 025°38'1121.5
2017-Sep-16 18:00N 36°31' W 025°51'1121.3
2017-Sep-16 17:30N 36°28' W 026°03'1121.1
2017-Sep-16 17:00N 36°25' W 026°16'2921.2
2017-Sep-16 15:37N 36°17' W 026°51'321.5
2017-Sep-16 15:30N 36°16' W 026°54'  

Dump ship's entire track history